Terminal Aerodrome Forecast
Issued by NWS Twin Cities, MN

Home | Current Version | Previous Version | Text Only | Print | Product List | Glossary On
Versions: 1 2 3 4 5 6 7 8 9 10 11 12 13 14 15 16 17 18
265
FTUS43 KMPX 230520
TAFSTC
TAF
KSTC 230520Z 2306/2406 35005KT P6SM FEW090
     FM231400 32008KT P6SM SCT020 BKN035
     FM232000 35009G16KT P6SM BKN040
     FM240000 01005KT P6SM SCT250=

USA.gov is the U.S. government's official web portal to all federal, state and local government web resources and services.